createdAt,value
2022-08-29T00:02:00.776Z,13.39
2022-08-29T00:04:27.815Z,13.79
2022-08-29T00:06:58.058Z,15.07
2022-08-29T00:09:25.339Z,14.24
2022-08-29T00:11:52.130Z,15.08
2022-08-29T00:14:23.371Z,15.00
2022-08-29T00:16:54.585Z,14.93
2022-08-29T00:19:23.034Z,14.88
2022-08-29T00:21:53.929Z,12.44
2022-08-29T00:24:20.955Z,14.81
2022-08-29T00:26:47.866Z,14.77
2022-08-29T00:29:14.750Z,14.40
2022-08-29T00:31:41.612Z,13.98
2022-08-29T00:34:08.536Z,14.67
2022-08-29T00:36:36.219Z,14.50
2022-08-29T00:39:05.136Z,13.75
2022-08-29T00:41:36.551Z,12.70
2022-08-29T00:44:05.355Z,14.58
2022-08-29T00:46:41.349Z,14.74
2022-08-29T00:49:41.998Z,13.55
2022-08-29T00:52:33.636Z,14.28
2022-08-29T00:55:02.134Z,13.85
2022-08-29T00:57:31.760Z,14.58
2022-08-29T01:00:01.067Z,13.71
2022-08-29T01:02:28.426Z,14.49
2022-08-29T01:04:55.320Z,12.82
2022-08-29T01:07:25.694Z,14.46
2022-08-29T01:09:53.841Z,13.92
2022-08-29T01:12:23.182Z,14.36
2022-08-29T01:14:56.034Z,14.40
2022-08-29T01:17:30.979Z,14.37
2022-08-29T01:20:36.226Z,14.33
2022-08-29T01:23:11.919Z,13.35
2022-08-29T01:25:44.645Z,14.14
2022-08-29T01:28:42.585Z,14.06
2022-08-29T01:31:15.422Z,14.03
2022-08-29T01:34:02.338Z,13.97
2022-08-29T01:36:39.514Z,13.08
2022-08-29T01:39:10.046Z,12.86
2022-08-29T01:41:37.676Z,13.41
2022-08-29T01:44:11.766Z,12.55
2022-08-29T01:46:39.206Z,13.13
2022-08-29T01:49:08.478Z,12.68
2022-08-29T01:51:37.576Z,13.74
2022-08-29T01:54:09.172Z,13.71
2022-08-29T01:56:40.411Z,13.52
2022-08-29T01:59:09.415Z,13.67
2022-08-29T02:01:38.977Z,12.07
2022-08-29T02:04:08.085Z,12.91
2022-08-29T02:06:36.176Z,12.70
2022-08-29T02:09:04.318Z,13.53
2022-08-29T02:11:32.727Z,12.94
2022-08-29T02:13:59.910Z,12.98
2022-08-29T02:16:28.649Z,13.35
2022-08-29T02:18:56.394Z,13.20
2022-08-29T02:21:24.690Z,13.58
2022-08-29T02:23:52.182Z,13.25
2022-08-29T02:26:22.771Z,11.59
2022-08-29T02:28:53.032Z,13.55
2022-08-29T02:31:21.860Z,12.86
2022-08-29T02:33:49.177Z,12.84
2022-08-29T02:36:19.741Z,11.36
2022-08-29T02:38:46.945Z,13.32
2022-08-29T02:41:14.499Z,13.26
2022-08-29T02:43:42.212Z,13.24
2022-08-29T02:46:14.997Z,12.74
2022-08-29T02:48:49.200Z,12.31
2022-08-29T02:51:31.057Z,12.55
2022-08-29T02:53:58.744Z,12.98
2022-08-29T02:56:26.021Z,12.90
2022-08-29T02:58:53.032Z,12.45
2022-08-29T03:01:21.700Z,11.51
2022-08-29T03:03:50.277Z,12.92
2022-08-29T03:06:18.588Z,12.49
2022-08-29T03:08:45.604Z,11.60
2022-08-29T03:11:12.595Z,12.15
2022-08-29T03:13:40.922Z,12.65
2022-08-29T03:16:08.618Z,12.24
2022-08-29T03:18:38.217Z,12.24
2022-08-29T03:21:05.074Z,11.57
2022-08-29T03:23:33.218Z,12.08
2022-08-29T03:26:00.039Z,12.91
2022-08-29T03:28:31.077Z,13.12
2022-08-29T03:30:57.850Z,11.91
2022-08-29T03:33:27.143Z,12.19
2022-08-29T03:35:53.986Z,12.42
2022-08-29T03:38:25.603Z,11.50
2022-08-29T03:40:54.103Z,12.82
2022-08-29T03:43:25.045Z,12.81
2022-08-29T03:45:52.101Z,12.85
2022-08-29T03:48:21.097Z,12.64
2022-08-29T03:50:47.977Z,12.80
2022-08-29T03:53:14.964Z,11.41
2022-08-29T03:55:41.897Z,12.06
2022-08-29T03:58:09.727Z,12.73
2022-08-29T04:00:39.115Z,12.71
2022-08-29T04:03:06.065Z,12.04
2022-08-29T04:05:33.003Z,12.32
2022-08-29T04:08:00.300Z,12.05
2022-08-29T04:10:37.620Z,12.21
2022-08-29T04:13:06.178Z,12.70
2022-08-29T04:15:33.484Z,12.47
2022-08-29T04:18:06.807Z,12.64
2022-08-29T04:20:37.734Z,12.64
2022-08-29T04:23:06.086Z,12.64
2022-08-29T04:25:37.381Z,12.60
2022-08-29T04:28:09.864Z,12.59
2022-08-29T04:30:37.726Z,10.16
2022-08-29T04:33:04.732Z,12.56
2022-08-29T04:35:35.151Z,11.32
2022-08-29T04:38:02.601Z,12.53
2022-08-29T04:40:29.642Z,12.40
2022-08-29T04:42:58.112Z,12.53
2022-08-29T04:45:25.186Z,11.34
2022-08-29T04:47:52.209Z,10.54
2022-08-29T04:50:22.319Z,11.79
2022-08-29T04:52:57.862Z,10.97
2022-08-29T04:55:25.921Z,12.60
2022-08-29T04:57:59.043Z,12.64
2022-08-29T05:00:30.553Z,11.94
2022-08-29T05:02:58.275Z,12.43
2022-08-29T05:05:25.239Z,12.43
2022-08-29T05:07:52.275Z,12.73
2022-08-29T05:10:22.520Z,12.87
2022-08-29T05:12:52.148Z,13.12
2022-08-29T05:15:19.053Z,13.22
2022-08-29T05:17:48.649Z,13.12
2022-08-29T05:20:16.976Z,12.75
2022-08-29T05:22:43.781Z,12.26
2022-08-29T05:25:17.348Z,10.91
2022-08-29T05:27:46.007Z,13.51
2022-08-29T05:30:19.926Z,13.60
2022-08-29T05:33:01.778Z,14.34
2022-08-29T05:35:28.580Z,13.68
2022-08-29T05:37:58.048Z,14.16
2022-08-29T05:40:26.193Z,14.83
2022-08-29T05:42:53.140Z,14.87
2022-08-29T05:45:19.996Z,14.62
2022-08-29T05:47:46.884Z,14.36
2022-08-29T05:50:18.014Z,14.79
2022-08-29T05:52:46.627Z,15.59
2022-08-29T05:55:13.526Z,16.29
2022-08-29T05:57:40.395Z,16.44
2022-08-29T06:00:13.161Z,16.68
2022-08-29T06:02:40.927Z,16.95
2022-08-29T06:05:08.098Z,17.37
2022-08-29T06:07:37.668Z,18.27
2022-08-29T06:10:06.854Z,18.40
2022-08-29T06:12:36.422Z,19.99
2022-08-29T06:15:07.450Z,21.51
2022-08-29T06:17:35.560Z,23.29
2022-08-29T06:20:02.627Z,22.22
2022-08-29T06:22:30.184Z,22.42
2022-08-29T06:24:57.798Z,23.30
2022-08-29T06:27:26.225Z,21.84
2022-08-29T06:29:53.876Z,22.95
2022-08-29T06:32:20.767Z,22.39
2022-08-29T06:34:47.682Z,21.74
2022-08-29T06:37:14.677Z,22.59
2022-08-29T06:39:43.591Z,22.57
2022-08-29T06:42:14.613Z,22.53
2022-08-29T06:44:44.619Z,22.26
2022-08-29T06:47:11.799Z,21.78
2022-08-29T06:49:38.640Z,21.58
2022-08-29T06:52:05.493Z,21.52
2022-08-29T06:54:33.423Z,21.77
2022-08-29T06:57:00.496Z,21.95
2022-08-29T06:59:28.947Z,21.46
2022-08-29T07:01:55.831Z,22.17
2022-08-29T07:04:26.620Z,23.11
2022-08-29T07:06:57.972Z,24.14
2022-08-29T07:09:26.114Z,25.52
2022-08-29T07:11:53.990Z,25.83
2022-08-29T07:14:20.938Z,27.78
2022-08-29T07:16:48.016Z,29.07
2022-08-29T07:19:14.921Z,30.42
2022-08-29T07:21:42.256Z,30.93
2022-08-29T07:24:10.737Z,29.91
2022-08-29T07:26:42.415Z,29.12
2022-08-29T07:29:15.988Z,29.57
2022-08-29T07:31:44.197Z,28.92
2022-08-29T07:34:11.340Z,30.71
2022-08-29T07:36:40.074Z,31.08
2022-08-29T07:39:11.977Z,31.67
2022-08-29T07:41:41.080Z,32.83
2022-08-29T07:44:08.566Z,32.42
2022-08-29T07:46:38.958Z,32.08
2022-08-29T07:49:06.725Z,32.28
2022-08-29T07:51:34.362Z,32.91
2022-08-29T07:54:01.596Z,33.00
2022-08-29T07:56:42.670Z,30.28
2022-08-29T07:59:10.092Z,30.64
2022-08-29T08:01:37.159Z,32.00
2022-08-29T08:04:04.976Z,30.80
2022-08-29T08:06:34.571Z,32.15
2022-08-29T08:09:05.072Z,32.25
2022-08-29T08:11:34.654Z,31.95
2022-08-29T08:14:05.650Z,32.13
2022-08-29T08:16:33.253Z,32.91
2022-08-29T08:19:07.264Z,33.90
2022-08-29T08:21:38.626Z,32.87
2022-08-29T08:24:19.593Z,34.15
2022-08-29T08:26:48.779Z,32.91
2022-08-29T08:29:16.540Z,33.26
2022-08-29T08:31:49.577Z,33.96
2022-08-29T08:34:18.265Z,31.68
2022-08-29T08:36:45.772Z,32.91
2022-08-29T08:39:15.549Z,32.27
2022-08-29T08:41:57.072Z,32.72
2022-08-29T08:44:28.933Z,34.12
2022-08-29T08:47:02.270Z,33.58
2022-08-29T08:49:42.785Z,32.55
2022-08-29T08:52:16.199Z,33.76
2022-08-29T08:54:51.976Z,30.34
2022-08-29T08:57:21.753Z,32.66
2022-08-29T08:59:55.927Z,32.57
2022-08-29T09:03:14.949Z,33.04
2022-08-29T09:06:07.075Z,32.52
2022-08-29T09:08:49.797Z,32.42
2022-08-29T09:11:22.557Z,32.53
2022-08-29T09:14:01.936Z,32.48
2022-08-29T09:16:41.232Z,31.81
2022-08-29T09:19:11.414Z,30.99
2022-08-29T09:21:53.922Z,31.77
2022-08-29T09:24:47.611Z,32.07
2022-08-29T09:27:31.439Z,31.07
2022-08-29T09:30:12.008Z,31.81
2022-08-29T09:33:09.242Z,30.98
2022-08-29T09:35:44.616Z,29.72
2022-08-29T09:38:17.609Z,30.55
2022-08-29T09:40:49.915Z,28.68
2022-08-29T09:43:44.851Z,29.60
2022-08-29T09:46:11.912Z,29.91
2022-08-29T09:48:42.464Z,28.63
2022-08-29T09:51:22.278Z,29.79
2022-08-29T09:53:51.900Z,29.04
2022-08-29T09:56:27.304Z,28.21
2022-08-29T09:59:05.347Z,27.77
2022-08-29T10:01:32.611Z,28.21
2022-08-29T10:04:05.495Z,28.09
2022-08-29T10:06:44.321Z,27.78
2022-08-29T10:09:32.543Z,27.27
2022-08-29T10:12:09.952Z,24.89
2022-08-29T10:14:41.262Z,26.08
2022-08-29T10:17:48.222Z,25.21
2022-08-29T10:20:16.895Z,26.36
2022-08-29T10:22:53.892Z,26.21
2022-08-29T10:25:36.599Z,26.21
2022-08-29T10:28:07.916Z,26.09
2022-08-29T10:30:49.265Z,25.43
2022-08-29T10:33:25.875Z,25.85
2022-08-29T10:36:00.556Z,25.45
2022-08-29T10:39:04.228Z,25.34
2022-08-29T10:41:39.848Z,25.45
2022-08-29T10:47:09.019Z,25.66
2022-08-29T10:49:46.312Z,25.67
2022-08-29T10:52:31.152Z,25.32
2022-08-29T10:55:11.451Z,25.21
2022-08-29T10:58:02.675Z,25.13
2022-08-29T11:00:45.282Z,25.20
2022-08-29T11:03:36.168Z,25.41
2022-08-29T11:06:11.283Z,25.37
2022-08-29T11:08:46.677Z,25.08
2022-08-29T11:11:19.993Z,25.02
2022-08-29T11:13:56.597Z,24.69
2022-08-29T11:16:46.400Z,24.66
2022-08-29T11:19:21.575Z,24.97
2022-08-29T11:22:16.300Z,25.08
2022-08-29T11:24:47.253Z,24.07
2022-08-29T11:27:54.057Z,24.65
2022-08-29T11:30:28.056Z,24.73
2022-08-29T11:33:06.715Z,25.29
2022-08-29T11:36:05.032Z,25.44
2022-08-29T11:38:40.466Z,25.81
2022-08-29T11:41:29.378Z,26.13
2022-08-29T11:44:18.301Z,26.14
2022-08-29T11:46:53.359Z,25.95
2022-08-29T11:49:38.731Z,25.87
2022-08-29T11:52:08.480Z,25.87
2022-08-29T11:54:39.250Z,25.79
2022-08-29T11:57:09.068Z,25.92
2022-08-29T11:59:53.270Z,25.77
2022-08-29T12:02:30.295Z,25.66
2022-08-29T12:04:59.585Z,24.11
2022-08-29T12:08:02.984Z,24.77
2022-08-29T12:11:03.863Z,23.53
2022-08-29T12:13:46.092Z,24.80
2022-08-29T12:16:15.661Z,24.82
2022-08-29T12:18:51.153Z,25.01
2022-08-29T12:21:37.327Z,25.55
2022-08-29T12:24:07.747Z,25.79
2022-08-29T12:26:46.347Z,25.78
2022-08-29T12:29:24.664Z,25.73
2022-08-29T12:32:28.525Z,25.74
2022-08-29T12:35:15.471Z,26.15
2022-08-29T12:38:04.616Z,26.41
2022-08-29T12:40:37.685Z,26.26
2022-08-29T12:43:43.929Z,25.99
2022-08-29T12:46:37.454Z,25.96
2022-08-29T12:49:20.111Z,24.78
2022-08-29T12:51:56.264Z,25.93
2022-08-29T12:54:36.990Z,25.49
2022-08-29T12:57:06.904Z,25.81
2022-08-29T12:59:34.232Z,25.98
2022-08-29T13:02:01.713Z,25.45
2022-08-29T13:04:38.997Z,25.96
2022-08-29T13:07:08.906Z,26.05
2022-08-29T13:09:40.167Z,26.96
2022-08-29T13:12:11.813Z,27.01
2022-08-29T13:15:01.531Z,27.08
2022-08-29T13:17:34.734Z,26.58
2022-08-29T13:20:45.537Z,26.27
2022-08-29T13:23:15.480Z,26.71
2022-08-29T13:25:59.119Z,26.88
2022-08-29T13:28:51.337Z,26.41
2022-08-29T13:31:19.035Z,26.74
2022-08-29T13:33:49.788Z,26.60
2022-08-29T13:36:37.361Z,26.31
2022-08-29T13:39:26.367Z,25.92
2022-08-29T13:42:06.591Z,26.02
2022-08-29T13:44:57.664Z,25.47
2022-08-29T13:47:40.413Z,25.71
2022-08-29T13:50:10.296Z,26.24
2022-08-29T13:52:37.190Z,25.53
2022-08-29T13:55:07.375Z,25.87
2022-08-29T13:57:34.871Z,26.79
2022-08-29T14:00:06.132Z,27.36
2022-08-29T14:02:33.979Z,26.75
2022-08-29T14:05:01.224Z,26.31
2022-08-29T14:07:33.801Z,26.83
2022-08-29T14:10:04.658Z,26.41
2022-08-29T14:12:34.513Z,26.30
2022-08-29T14:15:11.851Z,25.95
2022-08-29T14:17:41.390Z,26.33
2022-08-29T14:20:12.598Z,25.63
2022-08-29T14:22:49.104Z,26.16
2022-08-29T14:25:18.310Z,26.17
2022-08-29T14:27:49.638Z,25.70
2022-08-29T14:30:19.812Z,24.88
2022-08-29T14:32:49.538Z,25.87
2022-08-29T14:35:25.859Z,26.41
2022-08-29T14:37:55.432Z,26.19
2022-08-29T14:40:23.378Z,25.73
2022-08-29T14:42:59.159Z,26.13
2022-08-29T14:45:27.852Z,26.07
2022-08-29T14:47:57.725Z,26.76
2022-08-29T14:50:24.793Z,23.37
2022-08-29T14:52:52.262Z,25.08
2022-08-29T14:55:20.682Z,25.33
2022-08-29T14:57:49.927Z,26.79
2022-08-29T15:00:22.324Z,26.92
2022-08-29T15:02:52.354Z,26.45
2022-08-29T15:05:26.187Z,26.41
2022-08-29T15:07:53.094Z,27.08
2022-08-29T15:10:21.397Z,26.67
2022-08-29T15:12:49.210Z,26.57
2022-08-29T15:15:16.145Z,27.12
2022-08-29T15:17:43.636Z,25.76
2022-08-29T15:23:04.320Z,25.44
2022-08-29T15:25:31.209Z,25.25
2022-08-29T15:28:01.048Z,26.02
2022-08-29T15:30:28.265Z,25.63
2022-08-29T15:33:00.930Z,24.14
2022-08-29T15:35:30.758Z,25.60
2022-08-29T15:37:57.663Z,25.34
2022-08-29T15:40:28.345Z,25.16
2022-08-29T15:42:55.167Z,25.49
2022-08-29T15:45:24.826Z,25.41
2022-08-29T15:47:54.237Z,24.91
2022-08-29T15:50:21.490Z,24.79
2022-08-29T15:52:51.675Z,25.52
2022-08-29T15:55:18.638Z,25.14
2022-08-29T15:57:45.621Z,25.22
2022-08-29T16:00:22.504Z,25.91
2022-08-29T16:03:13.036Z,25.70
2022-08-29T16:05:43.665Z,25.89
2022-08-29T16:08:13.450Z,25.45
2022-08-29T16:10:45.911Z,25.96
2022-08-29T16:13:13.008Z,24.15
2022-08-29T16:15:42.114Z,25.49
2022-08-29T16:18:09.648Z,24.81
2022-08-29T16:20:37.995Z,24.88
2022-08-29T16:23:05.704Z,25.74
2022-08-29T16:25:37.837Z,25.33
2022-08-29T16:28:06.235Z,24.41
2022-08-29T16:30:33.716Z,24.99
2022-08-29T16:33:03.694Z,24.31
2022-08-29T16:35:30.647Z,25.04
2022-08-29T16:38:02.664Z,24.06
2022-08-29T16:40:32.721Z,24.74
2022-08-29T16:43:00.905Z,24.65
2022-08-29T16:45:27.798Z,24.77
2022-08-29T16:47:57.873Z,24.38
2022-08-29T16:50:25.590Z,25.18
2022-08-29T16:52:52.601Z,25.19
2022-08-29T16:55:21.232Z,24.93
2022-08-29T16:58:08.088Z,24.69
2022-08-29T17:00:35.041Z,24.04
2022-08-29T17:03:04.736Z,23.19
2022-08-29T17:05:31.644Z,24.57
2022-08-29T17:08:02.289Z,24.51
2022-08-29T17:10:29.242Z,23.93
2022-08-29T17:12:55.987Z,22.74
2022-08-29T17:15:22.940Z,24.39
2022-08-29T17:17:50.010Z,23.91
2022-08-29T17:20:17.061Z,24.35
2022-08-29T17:22:43.976Z,23.62
2022-08-29T17:25:10.925Z,22.75
2022-08-29T17:27:37.774Z,23.91
2022-08-29T17:30:05.782Z,22.91
2022-08-29T17:32:32.651Z,23.91
2022-08-29T17:35:00.220Z,23.77
2022-08-29T17:37:35.973Z,23.34
2022-08-29T17:40:05.703Z,22.34
2022-08-29T17:42:32.725Z,23.26
2022-08-29T17:44:59.662Z,23.02
2022-08-29T17:47:26.893Z,23.01
2022-08-29T17:49:56.946Z,21.62
2022-08-29T17:52:24.027Z,23.14
2022-08-29T17:54:50.847Z,20.34
2022-08-29T17:57:17.844Z,22.74
2022-08-29T17:59:44.597Z,22.92
2022-08-29T18:02:12.044Z,22.91
2022-08-29T18:04:40.013Z,22.68
2022-08-29T18:09:40.038Z,22.37
2022-08-29T18:12:09.337Z,21.97
2022-08-29T18:14:36.286Z,22.64
2022-08-29T18:17:06.107Z,22.04
2022-08-29T18:19:33.103Z,22.53
2022-08-29T18:22:00.060Z,21.18
2022-08-29T18:24:26.833Z,22.27
2022-08-29T18:26:55.245Z,21.83
2022-08-29T18:29:22.091Z,22.11
2022-08-29T18:31:49.212Z,21.73
2022-08-29T18:34:17.198Z,21.94
2022-08-29T18:36:45.272Z,21.68
2022-08-29T18:39:13.325Z,21.79
2022-08-29T18:41:40.420Z,21.72
2022-08-29T18:44:07.402Z,20.87
2022-08-29T18:46:34.337Z,21.53
2022-08-29T18:49:02.232Z,20.36
2022-08-29T18:51:29.251Z,21.36
2022-08-29T18:53:57.034Z,19.88
2022-08-29T18:56:24.230Z,20.85
2022-08-29T18:58:54.614Z,21.21
2022-08-29T19:01:28.359Z,21.20
2022-08-29T19:04:00.611Z,20.91
2022-08-29T19:06:29.401Z,21.07
2022-08-29T19:08:57.015Z,20.76
2022-08-29T19:11:28.130Z,20.49
2022-08-29T19:13:55.095Z,20.45
2022-08-29T19:16:23.876Z,20.03
2022-08-29T19:18:51.771Z,20.67
2022-08-29T19:21:19.803Z,20.59
2022-08-29T19:23:52.597Z,19.47
2022-08-29T19:26:24.288Z,20.26
2022-08-29T19:28:53.140Z,20.41
2022-08-29T19:31:22.797Z,20.62
2022-08-29T19:33:49.899Z,20.02
2022-08-29T19:36:19.794Z,19.68
2022-08-29T19:38:47.193Z,20.51
2022-08-29T19:41:15.580Z,20.46
2022-08-29T19:43:42.696Z,20.38
2022-08-29T19:46:16.723Z,20.30
2022-08-29T19:48:51.267Z,18.58
2022-08-29T19:51:21.495Z,20.17
2022-08-29T19:53:48.766Z,20.14
2022-08-29T19:56:20.085Z,17.96
2022-08-29T19:58:47.651Z,18.68
2022-08-29T20:01:17.267Z,20.15
2022-08-29T20:03:44.524Z,19.56
2022-08-29T20:06:12.302Z,20.07
2022-08-29T20:08:41.818Z,19.78
2022-08-29T20:11:15.940Z,20.03
2022-08-29T20:13:50.147Z,19.51
2022-08-29T20:16:22.276Z,19.97
2022-08-29T20:18:50.464Z,19.04
2022-08-29T20:21:17.548Z,19.41
2022-08-29T20:23:49.156Z,19.90
2022-08-29T20:26:16.441Z,19.69
2022-08-29T20:28:43.497Z,18.95
2022-08-29T20:31:11.318Z,18.96
2022-08-29T20:33:41.291Z,19.63
2022-08-29T20:36:27.291Z,19.44
2022-08-29T20:38:54.433Z,20.07
2022-08-29T20:41:21.809Z,20.27
2022-08-29T20:43:48.676Z,20.09
2022-08-29T20:46:15.622Z,20.09
2022-08-29T20:48:42.588Z,18.87
2022-08-29T20:51:13.405Z,19.13
2022-08-29T20:53:41.805Z,19.82
2022-08-29T20:56:12.165Z,19.59
2022-08-29T20:58:39.015Z,20.18
2022-08-29T21:01:12.472Z,19.55
2022-08-29T21:03:58.096Z,18.44
2022-08-29T21:06:25.352Z,19.31
2022-08-29T21:08:52.530Z,18.64
2022-08-29T21:11:20.507Z,19.25
2022-08-29T21:13:49.046Z,20.08
2022-08-29T21:16:23.358Z,20.06
2022-08-29T21:18:52.763Z,19.08
2022-08-29T21:21:24.014Z,18.43
2022-08-29T21:23:53.764Z,18.57
2022-08-29T21:26:20.735Z,19.80
2022-08-29T21:28:47.676Z,20.09
2022-08-29T21:31:15.497Z,19.74
2022-08-29T21:33:44.816Z,19.20
2022-08-29T21:36:23.283Z,19.75
2022-08-29T21:38:56.386Z,20.15
2022-08-29T21:41:25.262Z,19.23
2022-08-29T21:43:55.189Z,19.02
2022-08-29T21:46:25.489Z,18.88
2022-08-29T21:48:56.566Z,19.88
2022-08-29T21:51:24.426Z,20.12
2022-08-29T21:53:53.115Z,18.56
2022-08-29T21:56:20.313Z,19.52
2022-08-29T21:58:51.658Z,19.96
2022-08-29T22:01:22.865Z,18.84
2022-08-29T22:03:51.783Z,19.89
2022-08-29T22:06:19.001Z,19.19
2022-08-29T22:08:46.528Z,20.08
2022-08-29T22:11:21.198Z,19.84
2022-08-29T22:13:53.317Z,19.56
2022-08-29T22:16:28.746Z,18.13
2022-08-29T22:19:17.557Z,19.94
2022-08-29T22:21:51.875Z,19.38
2022-08-29T22:24:18.995Z,18.82
2022-08-29T22:26:49.831Z,19.97
2022-08-29T22:29:18.076Z,18.35
2022-08-29T22:31:45.159Z,19.51
2022-08-29T22:34:13.594Z,19.29
2022-08-29T22:36:41.362Z,19.82
2022-08-29T22:39:09.579Z,19.80
2022-08-29T22:41:36.877Z,18.62
2022-08-29T22:46:52.910Z,19.63
2022-08-29T22:49:19.951Z,19.90
2022-08-29T22:51:48.159Z,19.91
2022-08-29T22:54:38.874Z,18.56
2022-08-29T22:57:08.927Z,19.69
2022-08-29T22:59:37.222Z,19.73
2022-08-29T23:02:04.695Z,19.82
2022-08-29T23:04:31.864Z,18.79
2022-08-29T23:06:58.744Z,19.18
2022-08-29T23:09:25.550Z,19.89
2022-08-29T23:11:52.395Z,19.88
2022-08-29T23:14:20.912Z,18.81
2022-08-29T23:16:48.304Z,19.23
2022-08-29T23:19:15.367Z,19.78
2022-08-29T23:21:44.585Z,17.63
2022-08-29T23:24:11.697Z,18.63
2022-08-29T23:26:40.600Z,19.55
2022-08-29T23:29:07.444Z,19.12
2022-08-29T23:31:34.365Z,18.98
2022-08-29T23:34:01.409Z,18.19
2022-08-29T23:36:28.372Z,19.21
2022-08-29T23:38:59.817Z,18.20
2022-08-29T23:41:30.559Z,18.01
2022-08-29T23:43:59.346Z,18.65
2022-08-29T23:46:26.650Z,17.87
2022-08-29T23:48:55.443Z,18.57
2022-08-29T23:51:24.508Z,18.63
2022-08-29T23:53:52.781Z,17.17
2022-08-29T23:56:26.584Z,18.64
2022-08-29T23:58:58.686Z,16.76
